createdAt,value
2023-01-28T00:00:12.473Z,0.14
2023-01-28T00:02:43.314Z,0.14
2023-01-28T00:05:17.397Z,0.14
2023-01-28T00:08:10.974Z,0.13
2023-01-28T00:11:05.298Z,0.12
2023-01-28T00:13:55.668Z,0.12
2023-01-28T00:16:30.090Z,0.11
2023-01-28T00:19:04.262Z,0.10
2023-01-28T00:21:47.556Z,0.07
2023-01-28T00:24:42.630Z,0.07
2023-01-28T00:30:41.373Z,0.05
2023-01-28T00:33:48.762Z,0.04
2023-01-28T00:36:50.965Z,0.02
2023-01-28T00:39:45.924Z,0.03
2023-01-28T00:42:19.827Z,0.02
2023-01-28T00:45:21.238Z,0.03
2023-01-28T00:48:15.923Z,0.02
2023-01-28T00:50:52.322Z,0.02
2023-01-28T00:53:48.292Z,0.01
2023-01-28T00:56:32.095Z,-0.00
2023-01-28T00:59:38.823Z,-0.01
2023-01-28T01:02:30.890Z,-0.01
2023-01-28T01:05:03.584Z,0.00
2023-01-28T01:07:43.181Z,-0.01
2023-01-28T01:10:37.072Z,-0.00
2023-01-28T01:13:30.165Z,-0.01
2023-01-28T01:16:25.011Z,-0.01
2023-01-28T01:19:15.871Z,0.01
2023-01-28T01:22:10.801Z,0.02
2023-01-28T01:25:05.930Z,0.02
2023-01-28T01:28:00.125Z,0.03
2023-01-28T01:30:53.380Z,0.03
2023-01-28T01:33:26.311Z,0.03
2023-01-28T01:36:23.837Z,0.04
2023-01-28T01:39:00.642Z,0.02
2023-01-28T01:41:35.516Z,0.02
2023-01-28T01:44:59.832Z,0.02
2023-01-28T01:47:46.051Z,-0.03
2023-01-28T01:50:23.906Z,-0.05
2023-01-28T01:53:18.988Z,-0.07
2023-01-28T01:56:15.681Z,-0.12
2023-01-28T01:58:57.606Z,-0.15
2023-01-28T02:01:52.271Z,-0.18
2023-01-28T02:04:27.959Z,-0.21
2023-01-28T02:07:23.793Z,-0.27
2023-01-28T02:09:58.658Z,-0.30
2023-01-28T02:12:59.941Z,-0.34
2023-01-28T02:15:37.498Z,-0.34
2023-01-28T02:18:30.666Z,-0.33
2023-01-28T02:21:24.003Z,-0.35
2023-01-28T02:24:36.713Z,-0.37
2023-01-28T02:27:38.227Z,-0.38
2023-01-28T02:30:23.711Z,-0.40
2023-01-28T02:33:04.581Z,-0.42
2023-01-28T02:35:50.187Z,-0.45
2023-01-28T02:38:51.694Z,-0.46
2023-01-28T02:41:33.968Z,-0.47
2023-01-28T02:44:07.650Z,-0.47
2023-01-28T02:47:13.239Z,-0.47
2023-01-28T02:49:48.874Z,-0.50
2023-01-28T02:53:05.365Z,-0.50
2023-01-28T02:55:49.523Z,-0.51
2023-01-28T02:58:32.290Z,-0.52
2023-01-28T03:01:20.421Z,-0.52
2023-01-28T03:04:24.859Z,-0.55
2023-01-28T03:07:19.936Z,-0.55
2023-01-28T03:09:53.842Z,-0.56
2023-01-28T03:12:54.397Z,-0.56
2023-01-28T03:15:51.458Z,-0.60
2023-01-28T03:19:09.314Z,-0.63
2023-01-28T03:22:01.234Z,-0.66
2023-01-28T03:25:03.610Z,-0.69
2023-01-28T03:27:52.932Z,-0.71
2023-01-28T03:31:02.312Z,-0.74
2023-01-28T03:34:01.071Z,-0.75
2023-01-28T03:36:53.403Z,-0.76
2023-01-28T03:39:49.312Z,-0.76
2023-01-28T03:42:27.209Z,-0.77
2023-01-28T03:45:34.947Z,-0.77
2023-01-28T03:48:14.146Z,-0.78
2023-01-28T03:50:51.005Z,-0.80
2023-01-28T03:53:23.346Z,-0.79
2023-01-28T03:56:20.512Z,-0.82
2023-01-28T03:58:57.027Z,-0.83
2023-01-28T04:01:33.549Z,-0.82
2023-01-28T04:04:23.751Z,-0.82
2023-01-28T04:07:16.524Z,-0.82
2023-01-28T04:10:15.508Z,-0.82
2023-01-28T04:13:12.440Z,-0.84
2023-01-28T04:16:08.620Z,-0.83
2023-01-28T04:18:50.286Z,-0.84
2023-01-28T04:21:44.805Z,-0.87
2023-01-28T04:24:17.749Z,-0.86
2023-01-28T04:26:48.492Z,-0.84
2023-01-28T04:29:49.887Z,-0.85
2023-01-28T04:32:46.625Z,-0.85
2023-01-28T04:35:54.114Z,-0.86
2023-01-28T04:38:57.391Z,-0.87
2023-01-28T04:41:58.487Z,-0.88
2023-01-28T04:44:55.607Z,-0.90
2023-01-28T04:47:57.543Z,-0.90
2023-01-28T04:50:52.373Z,-0.90
2023-01-28T04:53:35.756Z,-0.90
2023-01-28T04:56:11.577Z,-0.88
2023-01-28T04:58:45.799Z,-0.88
2023-01-28T05:01:20.348Z,-0.89
2023-01-28T05:04:13.297Z,-0.92
2023-01-28T05:09:47.547Z,-0.91
2023-01-28T05:12:23.737Z,-0.95
2023-01-28T05:14:58.328Z,-0.97
2023-01-28T05:17:32.850Z,-0.97
2023-01-28T05:20:06.189Z,-0.97
2023-01-28T05:22:58.013Z,-0.96
2023-01-28T05:25:40.568Z,-0.97
2023-01-28T05:28:12.009Z,-1.00
2023-01-28T05:30:43.765Z,-1.00
2023-01-28T05:33:15.742Z,-1.00
2023-01-28T05:35:50.524Z,-1.01
2023-01-28T05:38:34.025Z,-1.00
2023-01-28T05:41:28.776Z,-0.99
2023-01-28T05:44:08.679Z,-0.99
2023-01-28T05:46:57.255Z,-1.00
2023-01-28T05:49:53.994Z,-1.03
2023-01-28T05:52:49.879Z,-1.06
2023-01-28T05:55:30.360Z,-1.07
2023-01-28T05:58:01.046Z,-1.06
2023-01-28T06:00:45.260Z,-1.06
2023-01-28T06:03:24.441Z,-1.06
2023-01-28T06:06:16.411Z,-1.07
2023-01-28T06:09:14.759Z,-1.07
2023-01-28T06:11:50.166Z,-1.05
2023-01-28T06:14:42.533Z,-1.06
2023-01-28T06:17:34.984Z,-1.07
2023-01-28T06:20:18.373Z,-1.09
2023-01-28T06:23:20.826Z,-1.11
2023-01-28T06:29:06.091Z,-1.09
2023-01-28T06:31:46.196Z,-1.10
2023-01-28T06:34:32.402Z,-1.11
2023-01-28T06:37:31.165Z,-1.11
2023-01-28T06:40:26.639Z,-1.11
2023-01-28T06:42:59.120Z,-1.09
2023-01-28T06:45:33.668Z,-1.09
2023-01-28T06:48:09.608Z,-1.09
2023-01-28T06:50:40.362Z,-1.09
2023-01-28T06:53:12.282Z,-1.07
2023-01-28T06:56:05.990Z,-1.07
2023-01-28T06:58:39.067Z,-1.09
2023-01-28T07:01:33.745Z,-1.09
2023-01-28T07:04:30.322Z,-1.09
2023-01-28T07:07:06.968Z,-1.07
2023-01-28T07:09:40.379Z,-1.06
2023-01-28T07:12:34.845Z,-1.05
2023-01-28T07:15:28.787Z,-1.06
2023-01-28T07:18:02.222Z,-1.05
2023-01-28T07:20:35.219Z,-1.04
2023-01-28T07:23:36.050Z,-1.03
2023-01-28T07:26:07.428Z,-1.04
2023-01-28T07:28:37.819Z,-1.02
2023-01-28T07:31:08.304Z,-0.99
2023-01-28T07:33:40.962Z,-0.99
2023-01-28T07:36:12.098Z,-1.00
2023-01-28T07:38:42.446Z,-1.00
2023-01-28T07:41:12.756Z,-1.02
2023-01-28T07:43:43.172Z,-1.01
2023-01-28T07:46:13.503Z,-1.01
2023-01-28T07:48:43.821Z,-1.00
2023-01-28T07:51:14.615Z,-0.99
2023-01-28T07:53:45.021Z,-0.97
2023-01-28T07:56:15.370Z,-0.98
2023-01-28T07:58:46.291Z,-0.99
2023-01-28T08:01:16.736Z,-1.00
2023-01-28T08:03:47.186Z,-1.00
2023-01-28T08:06:17.530Z,-1.00
2023-01-28T08:08:49.609Z,-0.98
2023-01-28T08:11:23.205Z,-0.98
2023-01-28T08:13:53.523Z,-0.97
2023-01-28T08:16:23.883Z,-0.98
2023-01-28T08:18:57.396Z,-0.97
2023-01-28T08:21:27.739Z,-0.95
2023-01-28T08:23:58.180Z,-0.93
2023-01-28T08:26:28.532Z,-0.93
2023-01-28T08:28:58.992Z,-0.93
2023-01-28T08:31:30.380Z,-0.94
2023-01-28T08:34:03.748Z,-0.95
2023-01-28T08:36:34.137Z,-0.96
2023-01-28T08:39:06.063Z,-0.95
2023-01-28T08:41:36.391Z,-0.93
2023-01-28T08:44:06.968Z,-0.95
2023-01-28T08:46:37.693Z,-0.97
2023-01-28T08:49:08.183Z,-0.97
2023-01-28T08:51:38.515Z,-0.95
2023-01-28T08:54:08.906Z,-0.92
2023-01-28T08:56:42.960Z,-0.92
2023-01-28T08:59:13.389Z,-0.95
2023-01-28T09:01:44.080Z,-0.96
2023-01-28T09:04:14.406Z,-0.94
2023-01-28T09:06:44.826Z,-0.94
2023-01-28T09:09:15.138Z,-0.96
2023-01-28T09:11:45.556Z,-0.95
2023-01-28T09:14:15.929Z,-0.93
2023-01-28T09:16:46.239Z,-0.89
2023-01-28T09:19:16.806Z,-0.86
2023-01-28T09:21:47.156Z,-0.83
2023-01-28T09:24:19.022Z,-0.81
2023-01-28T09:26:50.990Z,-0.77
2023-01-28T09:29:21.607Z,-0.74
2023-01-28T09:31:51.926Z,-0.74
2023-01-28T09:34:22.302Z,-0.79
2023-01-28T09:36:52.573Z,-0.83
2023-01-28T09:39:22.896Z,-0.86
2023-01-28T09:42:01.615Z,-0.89
2023-01-28T09:44:47.218Z,-0.91
2023-01-28T09:47:24.194Z,-0.93
2023-01-28T09:49:57.056Z,-0.94
2023-01-28T09:52:31.789Z,-0.98
2023-01-28T09:55:06.130Z,-0.99
2023-01-28T09:57:42.793Z,-0.98
2023-01-28T10:00:18.570Z,-0.98
2023-01-28T10:03:13.350Z,-1.00
2023-01-28T10:05:53.509Z,-0.99
2023-01-28T10:08:50.531Z,-0.98
2023-01-28T10:11:31.828Z,-0.98
2023-01-28T10:14:10.116Z,-0.97
2023-01-28T10:16:47.609Z,-0.97
2023-01-28T10:19:25.865Z,-0.98
2023-01-28T10:22:01.360Z,-1.01
2023-01-28T10:24:35.989Z,-0.98
2023-01-28T10:27:13.801Z,-0.94
2023-01-28T10:29:46.624Z,-0.93
2023-01-28T10:32:29.055Z,-0.95
2023-01-28T10:35:01.754Z,-0.93
2023-01-28T10:37:36.046Z,-0.92
2023-01-28T10:40:09.135Z,-0.96
2023-01-28T10:42:40.678Z,-0.97
2023-01-28T10:45:20.323Z,-0.97
2023-01-28T10:47:55.446Z,-0.96
2023-01-28T10:50:28.359Z,-0.94
2023-01-28T10:53:01.388Z,-0.95
2023-01-28T10:55:50.524Z,-0.96
2023-01-28T10:58:24.882Z,-0.95
2023-01-28T11:00:58.159Z,-0.96
2023-01-28T11:03:30.805Z,-0.98
2023-01-28T11:06:01.778Z,-0.99
2023-01-28T11:08:33.038Z,-0.98
2023-01-28T11:11:03.397Z,-0.96
2023-01-28T11:13:33.819Z,-0.94
2023-01-28T11:16:06.445Z,-0.92
2023-01-28T11:18:40.784Z,-0.89
2023-01-28T11:21:20.812Z,-0.87
2023-01-28T11:23:57.978Z,-0.85
2023-01-28T11:26:33.699Z,-0.81
2023-01-28T11:29:04.370Z,-0.79
2023-01-28T11:31:45.737Z,-0.78
2023-01-28T11:34:19.157Z,-0.79
2023-01-28T11:36:55.420Z,-0.82
2023-01-28T11:39:29.652Z,-0.83
2023-01-28T11:42:17.105Z,-0.82
2023-01-28T11:44:48.338Z,-0.81
2023-01-28T11:47:36.414Z,-0.74
2023-01-28T11:50:24.199Z,-0.68
2023-01-28T11:53:40.428Z,-0.64
2023-01-28T11:56:27.319Z,-0.62
2023-01-28T11:59:17.393Z,-0.60
2023-01-28T12:01:56.213Z,-0.60
2023-01-28T12:04:47.441Z,-0.61
2023-01-28T12:07:31.627Z,-0.59
2023-01-28T12:10:10.750Z,-0.58
2023-01-28T12:13:06.764Z,-0.57
2023-01-28T12:16:05.641Z,-0.56
2023-01-28T12:19:08.035Z,-0.64
2023-01-28T12:21:50.352Z,-0.64
2023-01-28T12:24:33.610Z,-0.69
2023-01-28T12:27:17.354Z,-0.72
2023-01-28T12:30:00.805Z,-0.75
2023-01-28T12:32:49.319Z,-0.80
2023-01-28T12:35:32.514Z,-0.80
2023-01-28T12:38:10.105Z,-0.75
2023-01-28T12:40:53.843Z,-0.76
2023-01-28T12:43:37.765Z,-0.81
2023-01-28T12:46:17.331Z,-0.84
2023-01-28T12:48:53.324Z,-0.88
2023-01-28T12:51:30.051Z,-0.88
2023-01-28T12:54:06.568Z,-0.91
2023-01-28T12:56:42.818Z,-0.95
2023-01-28T12:59:16.723Z,-0.95
2023-01-28T13:01:52.372Z,-0.99
2023-01-28T13:04:28.549Z,-1.04
2023-01-28T13:07:03.729Z,-1.07
2023-01-28T13:09:38.014Z,-1.08
2023-01-28T13:12:13.874Z,-1.10
2023-01-28T13:14:45.816Z,-1.12
2023-01-28T13:17:28.698Z,-1.14
2023-01-28T13:19:59.700Z,-1.15
2023-01-28T13:22:33.667Z,-1.14
2023-01-28T13:25:24.943Z,-1.16
2023-01-28T13:28:01.383Z,-1.17
2023-01-28T13:30:34.019Z,-1.16
2023-01-28T13:33:07.229Z,-1.17
2023-01-28T13:35:39.742Z,-1.16
2023-01-28T13:38:17.691Z,-1.16
2023-01-28T13:40:57.420Z,-1.18
2023-01-28T13:43:38.658Z,-1.20
2023-01-28T13:46:11.581Z,-1.22
2023-01-28T13:48:51.788Z,-1.21
2023-01-28T13:51:27.509Z,-1.21
2023-01-28T13:54:02.809Z,-1.21
2023-01-28T13:56:43.108Z,-1.22
2023-01-28T13:59:35.208Z,-1.22
2023-01-28T14:02:40.759Z,-1.25
2023-01-28T14:05:52.304Z,-1.27
2023-01-28T14:08:55.355Z,-1.29
2023-01-28T14:12:09.815Z,-1.29
2023-01-28T14:14:59.188Z,-1.29
2023-01-28T14:17:40.675Z,-1.30
2023-01-28T14:20:20.800Z,-1.30
2023-01-28T14:22:53.461Z,-1.30
2023-01-28T14:25:34.371Z,-1.29
2023-01-28T14:28:07.551Z,-1.28
2023-01-28T14:30:48.026Z,-1.29
2023-01-28T14:33:18.871Z,-1.30
2023-01-28T14:35:51.870Z,-1.30
2023-01-28T14:38:23.626Z,-1.32
2023-01-28T14:40:56.491Z,-1.32
2023-01-28T14:43:28.332Z,-1.33
2023-01-28T14:46:23.781Z,-1.33
2023-01-28T14:49:08.134Z,-1.36
2023-01-28T14:51:52.991Z,-1.40
2023-01-28T14:54:38.861Z,-1.42
2023-01-28T14:57:22.531Z,-1.41
2023-01-28T14:59:58.145Z,-1.44
2023-01-28T15:02:33.408Z,-1.46
2023-01-28T15:05:12.769Z,-1.48
2023-01-28T15:07:47.005Z,-1.50
2023-01-28T15:10:25.378Z,-1.51
2023-01-28T15:12:58.673Z,-1.51
2023-01-28T15:15:34.335Z,-1.55
2023-01-28T15:18:09.144Z,-1.55
2023-01-28T15:20:39.741Z,-1.59
2023-01-28T15:23:10.855Z,-1.63
2023-01-28T15:25:41.248Z,-1.65
2023-01-28T15:28:22.125Z,-1.67
2023-01-28T15:30:52.550Z,-1.70
2023-01-28T15:33:24.037Z,-1.71
2023-01-28T15:35:56.755Z,-1.72
2023-01-28T15:38:29.809Z,-1.71
2023-01-28T15:41:02.457Z,-1.71
2023-01-28T15:43:36.294Z,-1.72
2023-01-28T15:46:13.353Z,-1.75
2023-01-28T15:48:47.579Z,-1.76
2023-01-28T15:51:25.439Z,-1.77
2023-01-28T15:54:01.093Z,-1.76
2023-01-28T15:56:32.890Z,-1.77
2023-01-28T15:59:20.835Z,-1.78
2023-01-28T16:01:51.951Z,-1.80
2023-01-28T16:04:30.732Z,-1.81
2023-01-28T16:07:05.527Z,-1.82
2023-01-28T16:09:37.199Z,-1.84
2023-01-28T16:12:12.317Z,-1.86
2023-01-28T16:14:47.412Z,-1.87
2023-01-28T16:17:25.516Z,-1.89
2023-01-28T16:20:01.161Z,-1.89
2023-01-28T16:22:37.252Z,-1.91
2023-01-28T16:25:28.935Z,-1.93
2023-01-28T16:28:00.397Z,-1.95
2023-01-28T16:30:31.327Z,-1.95
2023-01-28T16:33:02.801Z,-1.95
2023-01-28T16:35:56.474Z,-1.94
2023-01-28T16:38:23.591Z,-1.93
2023-01-28T16:40:54.372Z,-1.94
2023-01-28T16:43:24.704Z,-1.94
2023-01-28T16:45:54.983Z,-1.95
2023-01-28T16:48:25.365Z,-1.95
2023-01-28T16:50:56.420Z,-1.98
2023-01-28T16:53:32.299Z,-2.00
2023-01-28T16:56:10.735Z,-2.01
2023-01-28T16:58:46.954Z,-2.04
2023-01-28T17:01:17.803Z,-2.06
2023-01-28T17:03:48.156Z,-2.08
2023-01-28T17:06:21.160Z,-2.10
2023-01-28T17:08:51.749Z,-2.16
2023-01-28T17:11:23.744Z,-2.19
2023-01-28T17:13:56.552Z,-2.20
2023-01-28T17:16:27.435Z,-2.20
2023-01-28T17:18:58.681Z,-2.20
2023-01-28T17:21:28.987Z,-2.18
2023-01-28T17:24:03.621Z,-2.17
2023-01-28T17:26:36.766Z,-2.16
2023-01-28T17:29:08.840Z,-2.16
2023-01-28T17:31:39.804Z,-2.14
2023-01-28T17:34:12.301Z,-2.12
2023-01-28T17:36:44.146Z,-2.11
2023-01-28T17:39:27.381Z,-2.11
2023-01-28T17:41:58.291Z,-2.10
2023-01-28T17:44:32.333Z,-2.10
2023-01-28T17:47:05.223Z,-2.09
2023-01-28T17:49:36.731Z,-2.09
2023-01-28T17:52:08.894Z,-2.08
2023-01-28T17:54:42.023Z,-2.08
2023-01-28T17:57:13.752Z,-2.06
2023-01-28T17:59:45.550Z,-2.05
2023-01-28T18:02:38.080Z,-2.03
2023-01-28T18:05:30.387Z,-2.04
2023-01-28T18:08:02.318Z,-2.04
2023-01-28T18:10:56.901Z,-2.05
2023-01-28T18:13:44.986Z,-2.03
2023-01-28T18:16:44.361Z,-2.02
2023-01-28T18:19:16.896Z,-2.01
2023-01-28T18:21:53.742Z,-2.01
2023-01-28T18:24:30.530Z,-2.02
2023-01-28T18:27:23.556Z,-2.03
2023-01-28T18:30:30.413Z,-2.02
2023-01-28T18:33:22.724Z,-2.01
2023-01-28T18:36:31.327Z,-2.00
2023-01-28T18:39:07.333Z,-1.97
2023-01-28T18:42:09.979Z,-1.95
2023-01-28T18:45:07.480Z,-1.94
2023-01-28T18:48:05.208Z,-1.95
2023-01-28T18:50:59.410Z,-1.93
2023-01-28T18:53:35.959Z,-1.93
2023-01-28T18:56:29.335Z,-1.92
2023-01-28T18:59:26.679Z,-1.92
2023-01-28T19:02:28.421Z,-1.92
2023-01-28T19:05:30.416Z,-1.91
2023-01-28T19:08:22.332Z,-1.91
2023-01-28T19:11:03.878Z,-1.91
2023-01-28T19:13:56.717Z,-1.90
2023-01-28T19:16:48.834Z,-1.89
2023-01-28T19:19:43.141Z,-1.87
2023-01-28T19:22:22.513Z,-1.88
2023-01-28T19:25:33.274Z,-1.86
2023-01-28T19:28:28.793Z,-1.87
2023-01-28T19:31:27.402Z,-1.89
2023-01-28T19:34:28.061Z,-1.89
2023-01-28T19:39:23.957Z,-1.83
2023-01-28T19:41:57.085Z,-1.85
2023-01-28T19:44:29.024Z,-1.83
2023-01-28T19:46:59.501Z,-1.83
2023-01-28T19:49:30.157Z,-1.83
2023-01-28T19:52:00.724Z,-1.83
2023-01-28T19:54:31.352Z,-1.83
2023-01-28T19:57:04.204Z,-1.81
2023-01-28T19:59:34.589Z,-1.80
2023-01-28T20:02:05.260Z,-1.78
2023-01-28T20:04:41.000Z,-1.78
2023-01-28T20:07:16.244Z,-1.78
2023-01-28T20:09:47.152Z,-1.77
2023-01-28T20:12:17.492Z,-1.76
2023-01-28T20:14:48.711Z,-1.77
2023-01-28T20:17:19.869Z,-1.75
2023-01-28T20:19:52.004Z,-1.74
2023-01-28T20:22:22.384Z,-1.72
2023-01-28T20:24:58.322Z,-1.71
2023-01-28T20:27:28.864Z,-1.69
2023-01-28T20:29:59.499Z,-1.69
2023-01-28T20:32:30.394Z,-1.67
2023-01-28T20:35:01.068Z,-1.68
2023-01-28T20:37:32.058Z,-1.68
2023-01-28T20:40:02.573Z,-1.69
2023-01-28T20:42:33.822Z,-1.70
2023-01-28T20:45:05.124Z,-1.70
2023-01-28T20:47:37.747Z,-1.68
2023-01-28T20:50:10.095Z,-1.67
2023-01-28T20:52:40.451Z,-1.66
2023-01-28T20:55:13.120Z,-1.65
2023-01-28T20:57:44.814Z,-1.64
2023-01-28T21:00:16.671Z,-1.64
2023-01-28T21:02:48.228Z,-1.63
2023-01-28T21:05:19.259Z,-1.62
2023-01-28T21:07:50.897Z,-1.61
2023-01-28T21:10:22.344Z,-1.60
2023-01-28T21:12:52.982Z,-1.59
2023-01-28T21:15:23.607Z,-1.58
2023-01-28T21:17:53.931Z,-1.57
2023-01-28T21:20:24.307Z,-1.57
2023-01-28T21:22:55.503Z,-1.57
2023-01-28T21:25:27.179Z,-1.56
2023-01-28T21:27:58.220Z,-1.56
2023-01-28T21:30:32.655Z,-1.56
2023-01-28T21:33:04.221Z,-1.55
2023-01-28T21:35:37.145Z,-1.55
2023-01-28T21:38:08.710Z,-1.55
2023-01-28T21:40:39.652Z,-1.54
2023-01-28T21:43:12.487Z,-1.55
2023-01-28T21:45:47.724Z,-1.54
2023-01-28T21:48:18.505Z,-1.54
2023-01-28T21:51:06.464Z,-1.53
2023-01-28T21:53:39.247Z,-1.52
2023-01-28T21:56:10.883Z,-1.53
2023-01-28T21:58:58.798Z,-1.53
2023-01-28T22:01:29.208Z,-1.53
2023-01-28T22:04:00.286Z,-1.52
2023-01-28T22:06:32.281Z,-1.53
2023-01-28T22:09:04.669Z,-1.56
2023-01-28T22:11:35.457Z,-1.58
2023-01-28T22:14:06.461Z,-1.60
2023-01-28T22:16:37.341Z,-1.61
2023-01-28T22:19:08.084Z,-1.63
2023-01-28T22:21:41.523Z,-1.64
2023-01-28T22:24:14.570Z,-1.65
2023-01-28T22:26:46.567Z,-1.67
2023-01-28T22:29:19.310Z,-1.67
2023-01-28T22:31:51.172Z,-1.68
2023-01-28T22:34:22.485Z,-1.70
2023-01-28T22:36:53.757Z,-1.71
2023-01-28T22:39:24.278Z,-1.71
2023-01-28T22:41:54.623Z,-1.72
2023-01-28T22:44:26.439Z,-1.73
2023-01-28T22:46:58.113Z,-1.74
2023-01-28T22:49:28.573Z,-1.74
2023-01-28T22:52:00.374Z,-1.75
2023-01-28T22:54:31.158Z,-1.76
2023-01-28T22:57:01.471Z,-1.75
2023-01-28T22:59:32.588Z,-1.76
2023-01-28T23:02:03.478Z,-1.78
2023-01-28T23:04:34.037Z,-1.80
2023-01-28T23:07:05.536Z,-1.80
2023-01-28T23:09:36.029Z,-1.81
2023-01-28T23:12:07.906Z,-1.81
2023-01-28T23:14:55.013Z,-1.79
2023-01-28T23:17:42.381Z,-1.82
2023-01-28T23:20:31.409Z,-1.87
2023-01-28T23:23:19.370Z,-1.93
2023-01-28T23:25:50.214Z,-1.97
2023-01-28T23:28:24.014Z,-2.01
2023-01-28T23:30:57.133Z,-2.04
2023-01-28T23:33:27.891Z,-2.06
2023-01-28T23:35:59.319Z,-2.07
2023-01-28T23:38:38.950Z,-2.09
2023-01-28T23:41:09.783Z,-2.09
2023-01-28T23:43:40.159Z,-2.08
2023-01-28T23:46:12.945Z,-2.08
2023-01-28T23:48:44.867Z,-2.07
2023-01-28T23:51:20.213Z,-2.07
2023-01-28T23:53:52.486Z,-2.07
2023-01-28T23:56:22.843Z,-2.07
2023-01-28T23:58:53.360Z,-2.09
